sensor_id;sensor_type;location;lat;lon;timestamp;temperature;humidity
48994;DHT22;34804;49.214;12.276;2022-12-29T00:02:19;4.60;80.90
48994;DHT22;34804;49.214;12.276;2022-12-29T00:04:45;4.80;80.00
48994;DHT22;34804;49.214;12.276;2022-12-29T00:07:12;4.80;79.70
48994;DHT22;34804;49.214;12.276;2022-12-29T00:09:39;4.90;78.80
48994;DHT22;34804;49.214;12.276;2022-12-29T00:12:06;4.90;79.30
48994;DHT22;34804;49.214;12.276;2022-12-29T00:14:32;4.80;79.60
48994;DHT22;34804;49.214;12.276;2022-12-29T00:17:18;4.80;79.90
48994;DHT22;34804;49.214;12.276;2022-12-29T00:19:45;4.80;80.00
48994;DHT22;34804;49.214;12.276;2022-12-29T00:22:31;4.80;79.70
48994;DHT22;34804;49.214;12.276;2022-12-29T00:25:16;4.80;80.00
48994;DHT22;34804;49.214;12.276;2022-12-29T00:28:01;4.80;79.30
48994;DHT22;34804;49.214;12.276;2022-12-29T00:30:46;4.90;79.50
48994;DHT22;34804;49.214;12.276;2022-12-29T00:33:33;4.90;79.20
48994;DHT22;34804;49.214;12.276;2022-12-29T00:39:00;4.90;79.60
48994;DHT22;34804;49.214;12.276;2022-12-29T00:41:47;4.90;79.30
48994;DHT22;34804;49.214;12.276;2022-12-29T00:44:33;5.00;78.60
48994;DHT22;34804;49.214;12.276;2022-12-29T00:47:00;5.00;78.50
48994;DHT22;34804;49.214;12.276;2022-12-29T00:49:31;5.00;78.60
48994;DHT22;34804;49.214;12.276;2022-12-29T00:54:28;5.00;77.90
48994;DHT22;34804;49.214;12.276;2022-12-29T00:56:55;5.00;78.70
48994;DHT22;34804;49.214;12.276;2022-12-29T00:59:22;4.90;78.80
48994;DHT22;34804;49.214;12.276;2022-12-29T01:01:52;4.90;79.00
48994;DHT22;34804;49.214;12.276;2022-12-29T01:04:21;4.90;79.10
48994;DHT22;34804;49.214;12.276;2022-12-29T01:06:49;4.80;78.80
48994;DHT22;34804;49.214;12.276;2022-12-29T01:09:17;4.80;79.10
48994;DHT22;34804;49.214;12.276;2022-12-29T01:12:04;4.80;79.30
48994;DHT22;34804;49.214;12.276;2022-12-29T01:14:31;4.80;78.90
48994;DHT22;34804;49.214;12.276;2022-12-29T01:16:58;4.90;78.70
48994;DHT22;34804;49.214;12.276;2022-12-29T01:19:25;4.90;79.00
48994;DHT22;34804;49.214;12.276;2022-12-29T01:21:52;4.80;79.30
48994;DHT22;34804;49.214;12.276;2022-12-29T01:24:20;4.90;79.30
48994;DHT22;34804;49.214;12.276;2022-12-29T01:26:47;4.90;78.10
48994;DHT22;34804;49.214;12.276;2022-12-29T01:29:15;5.00;78.40
48994;DHT22;34804;49.214;12.276;2022-12-29T01:31:42;4.90;78.70
48994;DHT22;34804;49.214;12.276;2022-12-29T01:34:09;4.90;78.60
48994;DHT22;34804;49.214;12.276;2022-12-29T01:36:36;4.90;79.10
48994;DHT22;34804;49.214;12.276;2022-12-29T01:39:03;4.90;78.60
48994;DHT22;34804;49.214;12.276;2022-12-29T01:41:30;5.10;77.90
48994;DHT22;34804;49.214;12.276;2022-12-29T01:43:59;5.30;76.80
48994;DHT22;34804;49.214;12.276;2022-12-29T01:46:40;5.30;77.20
48994;DHT22;34804;49.214;12.276;2022-12-29T01:51:57;5.30;76.70
48994;DHT22;34804;49.214;12.276;2022-12-29T01:54:31;5.20;76.80
48994;DHT22;34804;49.214;12.276;2022-12-29T01:57:01;5.30;76.50
48994;DHT22;34804;49.214;12.276;2022-12-29T01:59:34;5.20;76.80
48994;DHT22;34804;49.214;12.276;2022-12-29T02:02:01;5.10;76.90
48994;DHT22;34804;49.214;12.276;2022-12-29T02:04:31;5.10;77.00
48994;DHT22;34804;49.214;12.276;2022-12-29T02:07:15;5.00;76.80
48994;DHT22;34804;49.214;12.276;2022-12-29T02:09:47;5.00;77.10
48994;DHT22;34804;49.214;12.276;2022-12-29T02:12:16;5.00;76.90
48994;DHT22;34804;49.214;12.276;2022-12-29T02:14:44;5.00;77.20
48994;DHT22;34804;49.214;12.276;2022-12-29T02:20:12;4.90;77.20
48994;DHT22;34804;49.214;12.276;2022-12-29T02:31:17;4.80;77.40
48994;DHT22;34804;49.214;12.276;2022-12-29T02:36:45;4.70;77.40
48994;DHT22;34804;49.214;12.276;2022-12-29T02:46:54;4.60;77.80
48994;DHT22;34804;49.214;12.276;2022-12-29T02:53:27;4.50;78.50
48994;DHT22;34804;49.214;12.276;2022-12-29T02:56:33;4.80;77.40
48994;DHT22;34804;49.214;12.276;2022-12-29T02:59:00;4.80;77.30
48994;DHT22;34804;49.214;12.276;2022-12-29T03:10:38;5.20;76.00
48994;DHT22;34804;49.214;12.276;2022-12-29T03:16:45;5.30;75.20
48994;DHT22;34804;49.214;12.276;2022-12-29T03:19:23;5.40;73.50
48994;DHT22;34804;49.214;12.276;2022-12-29T03:22:03;5.40;75.10
48994;DHT22;34804;49.214;12.276;2022-12-29T03:24:54;5.40;74.30
48994;DHT22;34804;49.214;12.276;2022-12-29T03:27:26;5.40;74.20
48994;DHT22;34804;49.214;12.276;2022-12-29T03:29:58;5.50;74.50
48994;DHT22;34804;49.214;12.276;2022-12-29T03:32:54;5.40;74.60
48994;DHT22;34804;49.214;12.276;2022-12-29T03:35:25;5.60;73.80
48994;DHT22;34804;49.214;12.276;2022-12-29T03:40:48;5.60;73.20
48994;DHT22;34804;49.214;12.276;2022-12-29T03:43:16;5.60;73.30
48994;DHT22;34804;49.214;12.276;2022-12-29T03:45:43;5.60;73.30
48994;DHT22;34804;49.214;12.276;2022-12-29T03:48:10;5.60;73.80
48994;DHT22;34804;49.214;12.276;2022-12-29T03:50:37;5.60;73.00
48994;DHT22;34804;49.214;12.276;2022-12-29T03:53:04;5.60;73.40
48994;DHT22;34804;49.214;12.276;2022-12-29T03:55:31;5.70;73.00
48994;DHT22;34804;49.214;12.276;2022-12-29T03:57:58;5.60;73.50
48994;DHT22;34804;49.214;12.276;2022-12-29T04:00:24;5.60;73.60
48994;DHT22;34804;49.214;12.276;2022-12-29T04:02:51;5.60;73.10
48994;DHT22;34804;49.214;12.276;2022-12-29T04:05:18;5.60;73.50
48994;DHT22;34804;49.214;12.276;2022-12-29T04:07:45;5.60;73.60
48994;DHT22;34804;49.214;12.276;2022-12-29T04:10:12;5.60;74.00
48994;DHT22;34804;49.214;12.276;2022-12-29T04:12:39;5.60;74.10
48994;DHT22;34804;49.214;12.276;2022-12-29T04:15:09;5.70;73.80
48994;DHT22;34804;49.214;12.276;2022-12-29T04:17:36;5.70;72.90
48994;DHT22;34804;49.214;12.276;2022-12-29T04:20:04;5.80;73.30
48994;DHT22;34804;49.214;12.276;2022-12-29T04:22:49;5.80;73.40
48994;DHT22;34804;49.214;12.276;2022-12-29T04:25:23;5.70;73.20
48994;DHT22;34804;49.214;12.276;2022-12-29T04:27:50;5.80;72.80
48994;DHT22;34804;49.214;12.276;2022-12-29T04:30:16;5.80;73.90
48994;DHT22;34804;49.214;12.276;2022-12-29T04:32:43;5.70;74.30
48994;DHT22;34804;49.214;12.276;2022-12-29T04:35:10;5.70;72.50
48994;DHT22;34804;49.214;12.276;2022-12-29T04:37:37;5.80;72.40
48994;DHT22;34804;49.214;12.276;2022-12-29T04:40:04;5.80;72.50
48994;DHT22;34804;49.214;12.276;2022-12-29T04:42:31;5.80;71.30
48994;DHT22;34804;49.214;12.276;2022-12-29T04:44:58;5.80;72.60
48994;DHT22;34804;49.214;12.276;2022-12-29T04:47:24;5.80;72.80
48994;DHT22;34804;49.214;12.276;2022-12-29T04:49:52;5.80;73.10
48994;DHT22;34804;49.214;12.276;2022-12-29T04:52:18;5.70;72.60
48994;DHT22;34804;49.214;12.276;2022-12-29T04:54:45;5.70;73.80
48994;DHT22;34804;49.214;12.276;2022-12-29T04:57:12;5.60;73.60
48994;DHT22;34804;49.214;12.276;2022-12-29T04:59:40;5.60;73.40
48994;DHT22;34804;49.214;12.276;2022-12-29T05:02:06;5.70;72.60
48994;DHT22;34804;49.214;12.276;2022-12-29T05:04:33;5.70;72.70
48994;DHT22;34804;49.214;12.276;2022-12-29T05:07:00;5.70;73.50
48994;DHT22;34804;49.214;12.276;2022-12-29T05:09:27;5.70;73.00
48994;DHT22;34804;49.214;12.276;2022-12-29T05:11:53;5.70;73.10
48994;DHT22;34804;49.214;12.276;2022-12-29T05:14:20;5.70;74.10
48994;DHT22;34804;49.214;12.276;2022-12-29T05:16:48;5.70;74.40
48994;DHT22;34804;49.214;12.276;2022-12-29T05:19:15;5.70;74.40
48994;DHT22;34804;49.214;12.276;2022-12-29T05:21:44;5.70;73.70
48994;DHT22;34804;49.214;12.276;2022-12-29T05:24:10;5.70;73.50
48994;DHT22;34804;49.214;12.276;2022-12-29T05:26:37;5.60;75.30
48994;DHT22;34804;49.214;12.276;2022-12-29T05:29:04;5.70;73.70
48994;DHT22;34804;49.214;12.276;2022-12-29T05:31:31;5.80;73.70
48994;DHT22;34804;49.214;12.276;2022-12-29T05:33:58;5.80;74.20
48994;DHT22;34804;49.214;12.276;2022-12-29T05:36:24;5.80;72.70
48994;DHT22;34804;49.214;12.276;2022-12-29T05:38:51;5.80;73.50
48994;DHT22;34804;49.214;12.276;2022-12-29T05:41:18;5.80;74.30
48994;DHT22;34804;49.214;12.276;2022-12-29T05:43:45;5.80;73.10
48994;DHT22;34804;49.214;12.276;2022-12-29T05:46:12;5.80;73.20
48994;DHT22;34804;49.214;12.276;2022-12-29T05:48:39;5.80;74.40
48994;DHT22;34804;49.214;12.276;2022-12-29T05:51:05;5.80;73.40
48994;DHT22;34804;49.214;12.276;2022-12-29T05:53:33;5.80;74.30
48994;DHT22;34804;49.214;12.276;2022-12-29T05:55:59;5.70;74.00
48994;DHT22;34804;49.214;12.276;2022-12-29T05:58:26;5.70;74.90
48994;DHT22;34804;49.214;12.276;2022-12-29T06:00:53;5.70;73.20
48994;DHT22;34804;49.214;12.276;2022-12-29T06:03:20;5.60;74.40
48994;DHT22;34804;49.214;12.276;2022-12-29T06:05:47;5.50;75.20
48994;DHT22;34804;49.214;12.276;2022-12-29T06:08:13;5.40;75.40
48994;DHT22;34804;49.214;12.276;2022-12-29T06:10:40;5.30;75.90
48994;DHT22;34804;49.214;12.276;2022-12-29T06:13:07;5.30;75.20
48994;DHT22;34804;49.214;12.276;2022-12-29T06:15:34;5.40;74.40
48994;DHT22;34804;49.214;12.276;2022-12-29T06:18:01;5.50;75.10
48994;DHT22;34804;49.214;12.276;2022-12-29T06:20:28;5.60;73.90
48994;DHT22;34804;49.214;12.276;2022-12-29T06:22:54;5.60;74.30
48994;DHT22;34804;49.214;12.276;2022-12-29T06:25:21;5.60;74.90
48994;DHT22;34804;49.214;12.276;2022-12-29T06:27:48;5.50;75.90
48994;DHT22;34804;49.214;12.276;2022-12-29T06:30:15;5.50;75.90
48994;DHT22;34804;49.214;12.276;2022-12-29T06:32:44;5.50;74.90
48994;DHT22;34804;49.214;12.276;2022-12-29T06:35:11;5.60;75.50
48994;DHT22;34804;49.214;12.276;2022-12-29T06:37:37;5.60;75.10
48994;DHT22;34804;49.214;12.276;2022-12-29T06:40:05;5.60;75.00
48994;DHT22;34804;49.214;12.276;2022-12-29T06:42:32;5.60;75.60
48994;DHT22;34804;49.214;12.276;2022-12-29T06:44:59;5.50;75.90
48994;DHT22;34804;49.214;12.276;2022-12-29T06:47:27;5.50;75.70
48994;DHT22;34804;49.214;12.276;2022-12-29T06:49:54;5.50;75.60
48994;DHT22;34804;49.214;12.276;2022-12-29T06:52:21;5.60;75.00
48994;DHT22;34804;49.214;12.276;2022-12-29T06:54:50;5.70;73.60
48994;DHT22;34804;49.214;12.276;2022-12-29T06:57:17;5.70;74.20
48994;DHT22;34804;49.214;12.276;2022-12-29T06:59:44;5.80;73.70
48994;DHT22;34804;49.214;12.276;2022-12-29T07:02:11;5.60;73.70
48994;DHT22;34804;49.214;12.276;2022-12-29T07:04:38;5.60;73.60
48994;DHT22;34804;49.214;12.276;2022-12-29T07:07:05;5.60;73.80
48994;DHT22;34804;49.214;12.276;2022-12-29T07:09:32;5.50;73.50
48994;DHT22;34804;49.214;12.276;2022-12-29T07:11:59;5.60;73.50
48994;DHT22;34804;49.214;12.276;2022-12-29T07:14:26;5.70;72.20
48994;DHT22;34804;49.214;12.276;2022-12-29T07:16:53;5.60;73.10
48994;DHT22;34804;49.214;12.276;2022-12-29T07:19:20;5.60;72.30
48994;DHT22;34804;49.214;12.276;2022-12-29T07:21:46;5.60;73.00
48994;DHT22;34804;49.214;12.276;2022-12-29T07:24:13;5.60;72.60
48994;DHT22;34804;49.214;12.276;2022-12-29T07:26:40;5.60;72.80
48994;DHT22;34804;49.214;12.276;2022-12-29T07:29:07;5.70;73.90
48994;DHT22;34804;49.214;12.276;2022-12-29T07:31:34;5.70;73.10
48994;DHT22;34804;49.214;12.276;2022-12-29T07:34:01;5.70;72.40
48994;DHT22;34804;49.214;12.276;2022-12-29T07:36:28;5.80;71.60
48994;DHT22;34804;49.214;12.276;2022-12-29T07:39:00;5.80;72.00
48994;DHT22;34804;49.214;12.276;2022-12-29T07:41:27;5.80;72.30
48994;DHT22;34804;49.214;12.276;2022-12-29T07:43:54;5.80;71.70
48994;DHT22;34804;49.214;12.276;2022-12-29T07:46:21;5.80;71.60
48994;DHT22;34804;49.214;12.276;2022-12-29T07:49:07;5.70;71.90
48994;DHT22;34804;49.214;12.276;2022-12-29T07:51:34;5.70;72.70
48994;DHT22;34804;49.214;12.276;2022-12-29T07:54:01;5.70;72.70
48994;DHT22;34804;49.214;12.276;2022-12-29T07:56:28;5.70;72.30
48994;DHT22;34804;49.214;12.276;2022-12-29T07:58:55;5.80;72.10
48994;DHT22;34804;49.214;12.276;2022-12-29T08:01:21;5.90;72.40
48994;DHT22;34804;49.214;12.276;2022-12-29T08:03:50;5.90;71.40
48994;DHT22;34804;49.214;12.276;2022-12-29T08:06:22;6.00;71.10
48994;DHT22;34804;49.214;12.276;2022-12-29T08:08:49;6.10;71.50
48994;DHT22;34804;49.214;12.276;2022-12-29T08:11:16;6.10;70.40
48994;DHT22;34804;49.214;12.276;2022-12-29T08:13:43;6.20;70.80
48994;DHT22;34804;49.214;12.276;2022-12-29T08:16:10;6.30;69.10
48994;DHT22;34804;49.214;12.276;2022-12-29T08:18:36;6.30;69.70
48994;DHT22;34804;49.214;12.276;2022-12-29T08:21:04;6.40;69.80
48994;DHT22;34804;49.214;12.276;2022-12-29T08:23:32;6.40;68.30
48994;DHT22;34804;49.214;12.276;2022-12-29T08:26:08;6.50;68.40
48994;DHT22;34804;49.214;12.276;2022-12-29T08:28:34;6.50;69.20
48994;DHT22;34804;49.214;12.276;2022-12-29T08:31:02;6.50;69.30
48994;DHT22;34804;49.214;12.276;2022-12-29T08:33:29;6.60;69.30
48994;DHT22;34804;49.214;12.276;2022-12-29T08:36:02;6.60;69.10
48994;DHT22;34804;49.214;12.276;2022-12-29T08:38:30;6.70;68.40
48994;DHT22;34804;49.214;12.276;2022-12-29T08:40:57;6.60;69.30
48994;DHT22;34804;49.214;12.276;2022-12-29T08:43:25;6.70;69.40
48994;DHT22;34804;49.214;12.276;2022-12-29T08:45:52;6.60;69.20
48994;DHT22;34804;49.214;12.276;2022-12-29T08:48:18;6.70;70.20
48994;DHT22;34804;49.214;12.276;2022-12-29T08:50:49;6.70;70.30
48994;DHT22;34804;49.214;12.276;2022-12-29T08:53:16;6.80;69.90
48994;DHT22;34804;49.214;12.276;2022-12-29T08:55:54;6.80;69.90
48994;DHT22;34804;49.214;12.276;2022-12-29T08:58:28;6.80;69.50
48994;DHT22;34804;49.214;12.276;2022-12-29T09:00:56;6.80;69.10
48994;DHT22;34804;49.214;12.276;2022-12-29T09:03:23;6.90;70.40
48994;DHT22;34804;49.214;12.276;2022-12-29T09:06:10;6.90;68.80
48994;DHT22;34804;49.214;12.276;2022-12-29T09:08:37;6.90;68.80
48994;DHT22;34804;49.214;12.276;2022-12-29T09:11:15;6.90;67.60
48994;DHT22;34804;49.214;12.276;2022-12-29T09:13:42;6.90;68.70
48994;DHT22;34804;49.214;12.276;2022-12-29T09:16:09;6.90;68.30
48994;DHT22;34804;49.214;12.276;2022-12-29T09:18:36;6.90;69.10
48994;DHT22;34804;49.214;12.276;2022-12-29T09:21:05;6.90;69.40
48994;DHT22;34804;49.214;12.276;2022-12-29T09:23:33;7.00;69.30
48994;DHT22;34804;49.214;12.276;2022-12-29T09:26:00;7.00;69.70
48994;DHT22;34804;49.214;12.276;2022-12-29T09:28:27;7.00;70.00
48994;DHT22;34804;49.214;12.276;2022-12-29T09:30:56;7.00;70.20
48994;DHT22;34804;49.214;12.276;2022-12-29T09:33:24;7.10;70.90
48994;DHT22;34804;49.214;12.276;2022-12-29T09:35:56;7.10;69.70
48994;DHT22;34804;49.214;12.276;2022-12-29T09:38:25;7.20;69.90
48994;DHT22;34804;49.214;12.276;2022-12-29T09:40:59;7.20;71.40
48994;DHT22;34804;49.214;12.276;2022-12-29T09:46:13;7.30;69.90
48994;DHT22;34804;49.214;12.276;2022-12-29T09:48:48;7.40;69.70
48994;DHT22;34804;49.214;12.276;2022-12-29T09:51:21;7.40;68.70
48994;DHT22;34804;49.214;12.276;2022-12-29T09:53:56;7.40;68.70
48994;DHT22;34804;49.214;12.276;2022-12-29T09:56:25;7.50;67.60
48994;DHT22;34804;49.214;12.276;2022-12-29T09:59:08;7.50;67.80
48994;DHT22;34804;49.214;12.276;2022-12-29T10:01:54;7.50;68.40
48994;DHT22;34804;49.214;12.276;2022-12-29T10:04:28;7.60;68.60
48994;DHT22;34804;49.214;12.276;2022-12-29T10:07:05;7.60;69.30
48994;DHT22;34804;49.214;12.276;2022-12-29T10:13:18;7.80;68.90
48994;DHT22;34804;49.214;12.276;2022-12-29T10:16:02;7.90;69.20
48994;DHT22;34804;49.214;12.276;2022-12-29T10:21:47;8.20;68.70
48994;DHT22;34804;49.214;12.276;2022-12-29T10:24:15;8.30;67.50
48994;DHT22;34804;49.214;12.276;2022-12-29T10:26:44;8.40;67.60
48994;DHT22;34804;49.214;12.276;2022-12-29T10:29:32;8.50;68.50
48994;DHT22;34804;49.214;12.276;2022-12-29T10:32:06;8.60;68.40
48994;DHT22;34804;49.214;12.276;2022-12-29T10:34:39;8.60;67.30
48994;DHT22;34804;49.214;12.276;2022-12-29T10:37:21;8.70;67.00
48994;DHT22;34804;49.214;12.276;2022-12-29T10:39:59;8.90;67.30
48994;DHT22;34804;49.214;12.276;2022-12-29T10:42:35;9.00;68.10
48994;DHT22;34804;49.214;12.276;2022-12-29T10:45:04;9.20;67.60
48994;DHT22;34804;49.214;12.276;2022-12-29T10:47:35;9.30;68.70
48994;DHT22;34804;49.214;12.276;2022-12-29T10:50:05;9.40;66.70
48994;DHT22;34804;49.214;12.276;2022-12-29T10:52:33;9.40;67.90
48994;DHT22;34804;49.214;12.276;2022-12-29T10:55:12;9.50;68.70
48994;DHT22;34804;49.214;12.276;2022-12-29T10:57:44;9.60;69.20
48994;DHT22;34804;49.214;12.276;2022-12-29T11:00:17;9.80;67.40
48994;DHT22;34804;49.214;12.276;2022-12-29T11:05:45;10.00;67.10
48994;DHT22;34804;49.214;12.276;2022-12-29T11:08:19;10.10;67.90
48994;DHT22;34804;49.214;12.276;2022-12-29T11:11:00;10.10;66.90
48994;DHT22;34804;49.214;12.276;2022-12-29T11:13:30;10.10;66.30
48994;DHT22;34804;49.214;12.276;2022-12-29T11:16:04;10.10;66.40
48994;DHT22;34804;49.214;12.276;2022-12-29T11:18:37;10.10;65.60
48994;DHT22;34804;49.214;12.276;2022-12-29T11:21:06;10.10;67.20
48994;DHT22;34804;49.214;12.276;2022-12-29T11:23:41;10.10;65.50
48994;DHT22;34804;49.214;12.276;2022-12-29T11:26:20;10.00;66.60
48994;DHT22;34804;49.214;12.276;2022-12-29T11:31:47;10.00;66.90
48994;DHT22;34804;49.214;12.276;2022-12-29T11:34:20;10.10;67.60
48994;DHT22;34804;49.214;12.276;2022-12-29T11:36:48;10.10;68.00
48994;DHT22;34804;49.214;12.276;2022-12-29T11:39:28;10.00;67.50
48994;DHT22;34804;49.214;12.276;2022-12-29T11:41:55;10.10;67.70
48994;DHT22;34804;49.214;12.276;2022-12-29T11:44:23;10.00;69.10
48994;DHT22;34804;49.214;12.276;2022-12-29T11:46:51;10.00;68.00
48994;DHT22;34804;49.214;12.276;2022-12-29T11:49:20;10.20;67.90
48994;DHT22;34804;49.214;12.276;2022-12-29T11:51:51;10.30;65.80
48994;DHT22;34804;49.214;12.276;2022-12-29T11:54:30;10.20;66.40
48994;DHT22;34804;49.214;12.276;2022-12-29T11:57:07;10.10;66.30
48994;DHT22;34804;49.214;12.276;2022-12-29T11:59:43;10.30;66.50
48994;DHT22;34804;49.214;12.276;2022-12-29T12:02:30;10.30;67.00
48994;DHT22;34804;49.214;12.276;2022-12-29T12:08:12;10.80;66.70
48994;DHT22;34804;49.214;12.276;2022-12-29T12:11:11;10.90;64.70
48994;DHT22;34804;49.214;12.276;2022-12-29T12:16:35;11.30;62.60
48994;DHT22;34804;49.214;12.276;2022-12-29T12:19:38;11.30;63.90
48994;DHT22;34804;49.214;12.276;2022-12-29T12:22:31;11.20;64.00
48994;DHT22;34804;49.214;12.276;2022-12-29T12:25:21;11.50;63.50
48994;DHT22;34804;49.214;12.276;2022-12-29T12:28:23;11.90;63.50
48994;DHT22;34804;49.214;12.276;2022-12-29T12:30:55;12.20;61.40
48994;DHT22;34804;49.214;12.276;2022-12-29T12:38:55;12.50;62.40
48994;DHT22;34804;49.214;12.276;2022-12-29T12:44:00;12.10;62.90
48994;DHT22;34804;49.214;12.276;2022-12-29T12:47:05;11.80;61.90
48994;DHT22;34804;49.214;12.276;2022-12-29T12:52:22;11.30;66.00
48994;DHT22;34804;49.214;12.276;2022-12-29T12:58:12;11.10;65.80
48994;DHT22;34804;49.214;12.276;2022-12-29T13:01:22;11.10;65.70
48994;DHT22;34804;49.214;12.276;2022-12-29T13:04:32;11.10;67.20
48994;DHT22;34804;49.214;12.276;2022-12-29T13:13:19;11.10;67.50
48994;DHT22;34804;49.214;12.276;2022-12-29T13:16:06;11.10;67.20
48994;DHT22;34804;49.214;12.276;2022-12-29T13:18:50;11.00;67.20
48994;DHT22;34804;49.214;12.276;2022-12-29T13:30:14;11.10;66.90
48994;DHT22;34804;49.214;12.276;2022-12-29T13:33:11;11.60;65.60
48994;DHT22;34804;49.214;12.276;2022-12-29T13:38:42;12.20;64.20
48994;DHT22;34804;49.214;12.276;2022-12-29T13:41:27;12.00;65.10
48994;DHT22;34804;49.214;12.276;2022-12-29T13:43:57;12.10;65.20
48994;DHT22;34804;49.214;12.276;2022-12-29T13:46:28;12.30;65.20
48994;DHT22;34804;49.214;12.276;2022-12-29T13:49:12;12.10;65.00
48994;DHT22;34804;49.214;12.276;2022-12-29T13:51:58;11.80;64.90
48994;DHT22;34804;49.214;12.276;2022-12-29T13:57:48;11.20;67.40
48994;DHT22;34804;49.214;12.276;2022-12-29T14:00:02;10.90;68.20
48994;DHT22;34804;49.214;12.276;2022-12-29T14:02:42;10.60;69.20
48994;DHT22;34804;49.214;12.276;2022-12-29T14:08:00;10.20;71.70
48994;DHT22;34804;49.214;12.276;2022-12-29T14:10:37;10.10;72.10
48994;DHT22;34804;49.214;12.276;2022-12-29T14:13:13;10.10;72.30
48994;DHT22;34804;49.214;12.276;2022-12-29T14:15:43;10.00;71.70
48994;DHT22;34804;49.214;12.276;2022-12-29T14:18:17;9.90;72.30
48994;DHT22;34804;49.214;12.276;2022-12-29T14:21:01;9.90;73.00
48994;DHT22;34804;49.214;12.276;2022-12-29T14:23:41;9.80;73.50
48994;DHT22;34804;49.214;12.276;2022-12-29T14:26:15;9.80;73.30
48994;DHT22;34804;49.214;12.276;2022-12-29T14:28:49;9.70;74.00
48994;DHT22;34804;49.214;12.276;2022-12-29T14:36:40;9.60;74.20
48994;DHT22;34804;49.214;12.276;2022-12-29T14:44:59;9.70;74.50
48994;DHT22;34804;49.214;12.276;2022-12-29T14:50:04;9.60;74.90
48994;DHT22;34804;49.214;12.276;2022-12-29T14:52:33;9.60;74.60
48994;DHT22;34804;49.214;12.276;2022-12-29T14:57:44;9.50;75.10
48994;DHT22;34804;49.214;12.276;2022-12-29T15:00:39;9.40;75.60
48994;DHT22;34804;49.214;12.276;2022-12-29T15:05:53;9.30;76.30
48994;DHT22;34804;49.214;12.276;2022-12-29T15:08:30;9.30;76.40
48994;DHT22;34804;49.214;12.276;2022-12-29T15:13:51;9.30;76.50
48994;DHT22;34804;49.214;12.276;2022-12-29T15:16:42;9.30;76.60
48994;DHT22;34804;49.214;12.276;2022-12-29T15:19:21;9.20;76.80
48994;DHT22;34804;49.214;12.276;2022-12-29T15:21:48;9.10;77.00
48994;DHT22;34804;49.214;12.276;2022-12-29T15:24:15;9.10;77.20
48994;DHT22;34804;49.214;12.276;2022-12-29T15:26:47;9.10;77.30
48994;DHT22;34804;49.214;12.276;2022-12-29T15:29:39;9.00;77.50
48994;DHT22;34804;49.214;12.276;2022-12-29T15:34:44;8.90;78.10
48994;DHT22;34804;49.214;12.276;2022-12-29T15:39:50;8.80;78.70
48994;DHT22;34804;49.214;12.276;2022-12-29T15:42:32;8.80;78.90
48994;DHT22;34804;49.214;12.276;2022-12-29T15:45:05;8.80;78.80
48994;DHT22;34804;49.214;12.276;2022-12-29T15:47:37;8.80;79.00
48994;DHT22;34804;49.214;12.276;2022-12-29T15:50:27;8.80;78.90
48994;DHT22;34804;49.214;12.276;2022-12-29T15:52:55;8.80;78.80
48994;DHT22;34804;49.214;12.276;2022-12-29T15:55:35;8.80;78.80
48994;DHT22;34804;49.214;12.276;2022-12-29T15:58:19;8.80;78.80
48994;DHT22;34804;49.214;12.276;2022-12-29T16:00:49;8.80;78.60
48994;DHT22;34804;49.214;12.276;2022-12-29T16:03:16;8.80;78.80
48994;DHT22;34804;49.214;12.276;2022-12-29T16:05:53;8.80;79.00
48994;DHT22;34804;49.214;12.276;2022-12-29T16:08:33;8.70;79.20
48994;DHT22;34804;49.214;12.276;2022-12-29T16:11:01;8.70;79.10
48994;DHT22;34804;49.214;12.276;2022-12-29T16:13:34;8.60;79.30
48994;DHT22;34804;49.214;12.276;2022-12-29T16:16:14;8.60;79.30
48994;DHT22;34804;49.214;12.276;2022-12-29T16:18:43;8.40;79.60
48994;DHT22;34804;49.214;12.276;2022-12-29T16:21:25;8.30;80.00
48994;DHT22;34804;49.214;12.276;2022-12-29T16:23:55;8.20;80.10
48994;DHT22;34804;49.214;12.276;2022-12-29T16:26:25;8.10;80.70
48994;DHT22;34804;49.214;12.276;2022-12-29T16:28:57;8.10;80.90
48994;DHT22;34804;49.214;12.276;2022-12-29T16:31:36;7.90;81.10
48994;DHT22;34804;49.214;12.276;2022-12-29T16:37:31;7.80;81.80
48994;DHT22;34804;49.214;12.276;2022-12-29T16:42:46;7.70;82.20
48994;DHT22;34804;49.214;12.276;2022-12-29T16:50:39;7.60;83.00
48994;DHT22;34804;49.214;12.276;2022-12-29T16:53:24;7.50;83.10
48994;DHT22;34804;49.214;12.276;2022-12-29T16:55:53;7.50;83.20
48994;DHT22;34804;49.214;12.276;2022-12-29T16:58:24;7.40;83.20
48994;DHT22;34804;49.214;12.276;2022-12-29T17:00:54;7.40;83.30
48994;DHT22;34804;49.214;12.276;2022-12-29T17:03:23;7.40;83.40
48994;DHT22;34804;49.214;12.276;2022-12-29T17:05:53;7.30;83.40
48994;DHT22;34804;49.214;12.276;2022-12-29T17:08:23;7.20;83.50
48994;DHT22;34804;49.214;12.276;2022-12-29T17:10:55;7.20;83.70
48994;DHT22;34804;49.214;12.276;2022-12-29T17:13:41;7.10;84.50
48994;DHT22;34804;49.214;12.276;2022-12-29T17:16:10;7.20;84.60
48994;DHT22;34804;49.214;12.276;2022-12-29T17:18:38;7.20;84.40
48994;DHT22;34804;49.214;12.276;2022-12-29T17:21:05;7.20;84.70
48994;DHT22;34804;49.214;12.276;2022-12-29T17:23:33;7.20;84.90
48994;DHT22;34804;49.214;12.276;2022-12-29T17:26:01;7.40;85.00
48994;DHT22;34804;49.214;12.276;2022-12-29T17:28:30;7.40;84.30
48994;DHT22;34804;49.214;12.276;2022-12-29T17:31:01;7.50;83.70
48994;DHT22;34804;49.214;12.276;2022-12-29T17:33:31;7.40;83.90
48994;DHT22;34804;49.214;12.276;2022-12-29T17:36:01;7.40;83.90
48994;DHT22;34804;49.214;12.276;2022-12-29T17:38:30;7.30;83.40
48994;DHT22;34804;49.214;12.276;2022-12-29T17:40:58;7.20;84.40
48994;DHT22;34804;49.214;12.276;2022-12-29T17:43:25;7.30;84.90
48994;DHT22;34804;49.214;12.276;2022-12-29T17:46:04;7.40;84.60
48994;DHT22;34804;49.214;12.276;2022-12-29T17:48:32;7.50;84.60
48994;DHT22;34804;49.214;12.276;2022-12-29T17:50:59;7.50;84.30
48994;DHT22;34804;49.214;12.276;2022-12-29T17:53:28;7.60;84.40
48994;DHT22;34804;49.214;12.276;2022-12-29T17:55:55;7.60;84.50
48994;DHT22;34804;49.214;12.276;2022-12-29T17:58:24;7.60;84.30
48994;DHT22;34804;49.214;12.276;2022-12-29T18:00:54;7.60;84.30
48994;DHT22;34804;49.214;12.276;2022-12-29T18:03:30;7.60;84.20
48994;DHT22;34804;49.214;12.276;2022-12-29T18:05:58;7.60;84.20
48994;DHT22;34804;49.214;12.276;2022-12-29T18:08:24;7.60;84.20
48994;DHT22;34804;49.214;12.276;2022-12-29T18:10:54;7.60;84.00
48994;DHT22;34804;49.214;12.276;2022-12-29T18:13:29;7.60;84.50
48994;DHT22;34804;49.214;12.276;2022-12-29T18:16:10;7.50;84.80
48994;DHT22;34804;49.214;12.276;2022-12-29T18:18:37;7.40;84.70
48994;DHT22;34804;49.214;12.276;2022-12-29T18:21:03;7.40;85.10
48994;DHT22;34804;49.214;12.276;2022-12-29T18:23:31;7.30;85.40
48994;DHT22;34804;49.214;12.276;2022-12-29T18:26:03;7.30;85.60